sensor_id;sensor_type;location;lat;lon;timestamp;P1;durP1;ratioP1;P2;durP2;ratioP2
7917;SDS011;4004;42.624;23.386;2023-05-16T00:01:45;17.63;;;13.57;;
7917;SDS011;4004;42.624;23.386;2023-05-16T00:04:13;16.90;;;14.40;;
7917;SDS011;4004;42.624;23.386;2023-05-16T00:06:40;15.20;;;13.77;;
7917;SDS011;4004;42.624;23.386;2023-05-16T00:09:07;15.23;;;13.67;;
7917;SDS011;4004;42.624;23.386;2023-05-16T00:11:34;16.77;;;13.43;;
7917;SDS011;4004;42.624;23.386;2023-05-16T00:14:00;15.10;;;13.70;;
7917;SDS011;4004;42.624;23.386;2023-05-16T00:16:27;15.07;;;13.57;;
7917;SDS011;4004;42.624;23.386;2023-05-16T00:18:54;17.03;;;14.37;;
7917;SDS011;4004;42.624;23.386;2023-05-16T00:21:23;17.70;;;13.40;;
7917;SDS011;4004;42.624;23.386;2023-05-16T00:23:50;18.53;;;15.37;;
7917;SDS011;4004;42.624;23.386;2023-05-16T00:26:17;16.37;;;14.77;;
7917;SDS011;4004;42.624;23.386;2023-05-16T00:28:44;17.37;;;14.50;;
7917;SDS011;4004;42.624;23.386;2023-05-16T00:31:10;16.13;;;14.67;;
7917;SDS011;4004;42.624;23.386;2023-05-16T00:33:37;16.30;;;14.20;;
7917;SDS011;4004;42.624;23.386;2023-05-16T00:36:04;18.57;;;15.70;;
7917;SDS011;4004;42.624;23.386;2023-05-16T00:38:32;17.57;;;14.97;;
7917;SDS011;4004;42.624;23.386;2023-05-16T00:40:59;16.33;;;14.73;;
7917;SDS011;4004;42.624;23.386;2023-05-16T00:43:26;20.07;;;15.57;;
7917;SDS011;4004;42.624;23.386;2023-05-16T00:45:53;18.93;;;15.87;;
7917;SDS011;4004;42.624;23.386;2023-05-16T00:48:19;17.13;;;15.33;;
7917;SDS011;4004;42.624;23.386;2023-05-16T00:50:46;16.90;;;15.30;;
7917;SDS011;4004;42.624;23.386;2023-05-16T00:53:13;16.87;;;15.17;;
7917;SDS011;4004;42.624;23.386;2023-05-16T00:55:42;19.97;;;14.80;;
7917;SDS011;4004;42.624;23.386;2023-05-16T00:58:09;16.30;;;13.70;;
7917;SDS011;4004;42.624;23.386;2023-05-16T01:00:37;16.80;;;15.10;;
7917;SDS011;4004;42.624;23.386;2023-05-16T01:03:04;16.97;;;14.77;;
7917;SDS011;4004;42.624;23.386;2023-05-16T01:05:31;19.97;;;15.10;;
7917;SDS011;4004;42.624;23.386;2023-05-16T01:07:58;16.80;;;15.13;;
7917;SDS011;4004;42.624;23.386;2023-05-16T01:10:25;17.37;;;15.70;;
7917;SDS011;4004;42.624;23.386;2023-05-16T01:13:04;18.20;;;15.57;;
7917;SDS011;4004;42.624;23.386;2023-05-16T01:15:38;17.50;;;15.80;;
7917;SDS011;4004;42.624;23.386;2023-05-16T01:18:13;16.93;;;14.73;;
7917;SDS011;4004;42.624;23.386;2023-05-16T01:20:52;15.37;;;13.97;;
7917;SDS011;4004;42.624;23.386;2023-05-16T01:23:39;18.40;;;15.47;;
7917;SDS011;4004;42.624;23.386;2023-05-16T01:26:17;18.97;;;15.03;;
7917;SDS011;4004;42.624;23.386;2023-05-16T01:28:45;17.00;;;15.33;;
7917;SDS011;4004;42.624;23.386;2023-05-16T01:31:14;15.93;;;14.40;;
7917;SDS011;4004;42.624;23.386;2023-05-16T01:33:41;15.47;;;13.87;;
7917;SDS011;4004;42.624;23.386;2023-05-16T01:36:10;17.23;;;15.53;;
7917;SDS011;4004;42.624;23.386;2023-05-16T01:38:43;15.90;;;14.23;;
7917;SDS011;4004;42.624;23.386;2023-05-16T01:41:19;18.17;;;15.63;;
7917;SDS011;4004;42.624;23.386;2023-05-16T01:43:51;15.67;;;14.17;;
7917;SDS011;4004;42.624;23.386;2023-05-16T01:46:25;16.37;;;14.80;;
7917;SDS011;4004;42.624;23.386;2023-05-16T01:48:56;22.53;;;15.03;;
7917;SDS011;4004;42.624;23.386;2023-05-16T01:51:28;16.67;;;15.17;;
7917;SDS011;4004;42.624;23.386;2023-05-16T01:53:58;17.67;;;14.97;;
7917;SDS011;4004;42.624;23.386;2023-05-16T01:56:31;17.37;;;14.97;;
7917;SDS011;4004;42.624;23.386;2023-05-16T01:58:59;17.57;;;14.77;;
7917;SDS011;4004;42.624;23.386;2023-05-16T02:01:28;16.10;;;14.50;;
7917;SDS011;4004;42.624;23.386;2023-05-16T02:03:55;16.73;;;14.83;;
7917;SDS011;4004;42.624;23.386;2023-05-16T02:22:21;16.33;;;13.60;;
7917;SDS011;4004;42.624;23.386;2023-05-16T02:24:47;16.57;;;13.37;;
7917;SDS011;4004;42.624;23.386;2023-05-16T02:27:14;14.93;;;13.33;;
7917;SDS011;4004;42.624;23.386;2023-05-16T02:29:41;15.73;;;14.07;;
7917;SDS011;4004;42.624;23.386;2023-05-16T02:32:08;16.67;;;12.70;;
7917;SDS011;4004;42.624;23.386;2023-05-16T02:34:34;14.27;;;12.80;;
7917;SDS011;4004;42.624;23.386;2023-05-16T02:37:01;16.67;;;13.77;;
7917;SDS011;4004;42.624;23.386;2023-05-16T02:39:29;15.93;;;13.83;;
7917;SDS011;4004;42.624;23.386;2023-05-16T02:41:56;15.50;;;13.57;;
7917;SDS011;4004;42.624;23.386;2023-05-16T02:44:23;17.57;;;13.63;;
7917;SDS011;4004;42.624;23.386;2023-05-16T02:46:50;15.13;;;12.93;;
7917;SDS011;4004;42.624;23.386;2023-05-16T02:49:17;15.00;;;13.37;;
7917;SDS011;4004;42.624;23.386;2023-05-16T02:51:43;20.20;;;12.13;;
7917;SDS011;4004;42.624;23.386;2023-05-16T02:54:10;13.27;;;11.90;;
7917;SDS011;4004;42.624;23.386;2023-05-16T02:56:39;14.03;;;12.73;;
7917;SDS011;4004;42.624;23.386;2023-05-16T02:59:05;16.33;;;13.27;;
7917;SDS011;4004;42.624;23.386;2023-05-16T03:01:32;14.67;;;13.13;;
7917;SDS011;4004;42.624;23.386;2023-05-16T03:03:59;14.77;;;13.27;;
7917;SDS011;4004;42.624;23.386;2023-05-16T03:06:25;15.60;;;13.93;;
7917;SDS011;4004;42.624;23.386;2023-05-16T03:08:52;15.43;;;13.97;;
7917;SDS011;4004;42.624;23.386;2023-05-16T03:11:19;14.77;;;13.37;;
7917;SDS011;4004;42.624;23.386;2023-05-16T03:13:47;14.00;;;12.80;;
7917;SDS011;4004;42.624;23.386;2023-05-16T03:16:14;14.73;;;13.23;;
7917;SDS011;4004;42.624;23.386;2023-05-16T03:18:41;16.03;;;13.83;;
7917;SDS011;4004;42.624;23.386;2023-05-16T03:21:08;15.37;;;13.97;;
7917;SDS011;4004;42.624;23.386;2023-05-16T03:23:35;15.43;;;13.80;;
7917;SDS011;4004;42.624;23.386;2023-05-16T03:26:02;15.57;;;14.00;;
7917;SDS011;4004;42.624;23.386;2023-05-16T03:28:28;15.30;;;13.37;;
7917;SDS011;4004;42.624;23.386;2023-05-16T03:30:56;15.70;;;14.10;;
7917;SDS011;4004;42.624;23.386;2023-05-16T03:33:23;16.83;;;14.80;;
7917;SDS011;4004;42.624;23.386;2023-05-16T03:35:50;16.30;;;14.63;;
7917;SDS011;4004;42.624;23.386;2023-05-16T03:38:17;15.50;;;14.10;;
7917;SDS011;4004;42.624;23.386;2023-05-16T03:40:44;16.90;;;14.73;;
7917;SDS011;4004;42.624;23.386;2023-05-16T03:43:11;17.73;;;15.77;;
7917;SDS011;4004;42.624;23.386;2023-05-16T03:45:37;19.03;;;15.67;;
7917;SDS011;4004;42.624;23.386;2023-05-16T03:48:06;19.03;;;15.90;;
7917;SDS011;4004;42.624;23.386;2023-05-16T03:50:34;16.80;;;15.07;;
7917;SDS011;4004;42.624;23.386;2023-05-16T03:53:01;17.87;;;16.00;;
7917;SDS011;4004;42.624;23.386;2023-05-16T03:55:28;18.10;;;16.33;;
7917;SDS011;4004;42.624;23.386;2023-05-16T03:57:56;19.53;;;16.20;;
7917;SDS011;4004;42.624;23.386;2023-05-16T04:00:22;22.73;;;17.33;;
7917;SDS011;4004;42.624;23.386;2023-05-16T04:02:49;20.90;;;15.63;;
7917;SDS011;4004;42.624;23.386;2023-05-16T04:05:18;16.47;;;14.93;;
7917;SDS011;4004;42.624;23.386;2023-05-16T04:07:44;18.67;;;16.73;;
7917;SDS011;4004;42.624;23.386;2023-05-16T04:10:11;17.37;;;15.63;;
7917;SDS011;4004;42.624;23.386;2023-05-16T04:12:39;17.53;;;15.60;;
7917;SDS011;4004;42.624;23.386;2023-05-16T04:15:06;19.53;;;15.80;;
7917;SDS011;4004;42.624;23.386;2023-05-16T04:17:33;16.60;;;15.00;;
7917;SDS011;4004;42.624;23.386;2023-05-16T04:20:00;16.73;;;15.13;;
7917;SDS011;4004;42.624;23.386;2023-05-16T04:22:28;17.47;;;14.27;;
7917;SDS011;4004;42.624;23.386;2023-05-16T04:24:55;15.43;;;13.53;;
7917;SDS011;4004;42.624;23.386;2023-05-16T04:27:22;15.13;;;13.30;;
7917;SDS011;4004;42.624;23.386;2023-05-16T04:29:49;20.47;;;13.87;;
7917;SDS011;4004;42.624;23.386;2023-05-16T04:32:16;15.30;;;13.80;;
7917;SDS011;4004;42.624;23.386;2023-05-16T04:34:42;15.17;;;13.43;;
7917;SDS011;4004;42.624;23.386;2023-05-16T04:37:10;15.70;;;13.70;;
7917;SDS011;4004;42.624;23.386;2023-05-16T04:39:39;16.57;;;13.63;;
7917;SDS011;4004;42.624;23.386;2023-05-16T04:42:06;18.10;;;16.37;;
7917;SDS011;4004;42.624;23.386;2023-05-16T04:44:33;18.93;;;13.67;;
7917;SDS011;4004;42.624;23.386;2023-05-16T04:47:00;18.40;;;13.10;;
7917;SDS011;4004;42.624;23.386;2023-05-16T04:49:27;20.47;;;13.67;;
7917;SDS011;4004;42.624;23.386;2023-05-16T04:51:54;16.73;;;13.23;;
7917;SDS011;4004;42.624;23.386;2023-05-16T04:54:20;18.93;;;13.63;;
7917;SDS011;4004;42.624;23.386;2023-05-16T04:56:49;19.77;;;13.37;;
7917;SDS011;4004;42.624;23.386;2023-05-16T04:59:15;19.47;;;14.10;;
7917;SDS011;4004;42.624;23.386;2023-05-16T05:01:42;14.93;;;13.43;;
7917;SDS011;4004;42.624;23.386;2023-05-16T05:04:09;15.43;;;13.20;;
7917;SDS011;4004;42.624;23.386;2023-05-16T05:06:36;16.03;;;12.23;;
7917;SDS011;4004;42.624;23.386;2023-05-16T05:09:03;16.90;;;12.63;;
7917;SDS011;4004;42.624;23.386;2023-05-16T05:11:31;16.30;;;13.27;;
7917;SDS011;4004;42.624;23.386;2023-05-16T05:13:59;15.27;;;13.63;;
7917;SDS011;4004;42.624;23.386;2023-05-16T05:16:25;15.20;;;12.67;;
7917;SDS011;4004;42.624;23.386;2023-05-16T05:18:52;15.57;;;12.40;;
7917;SDS011;4004;42.624;23.386;2023-05-16T05:21:19;14.37;;;12.87;;
7917;SDS011;4004;42.624;23.386;2023-05-16T05:23:48;14.80;;;13.10;;
7917;SDS011;4004;42.624;23.386;2023-05-16T05:26:14;17.40;;;12.50;;
7917;SDS011;4004;42.624;23.386;2023-05-16T05:28:41;13.40;;;12.00;;
7917;SDS011;4004;42.624;23.386;2023-05-16T05:31:10;15.40;;;11.53;;
7917;SDS011;4004;42.624;23.386;2023-05-16T05:33:37;12.83;;;11.47;;
7917;SDS011;4004;42.624;23.386;2023-05-16T05:36:04;12.27;;;11.03;;
7917;SDS011;4004;42.624;23.386;2023-05-16T05:38:31;17.07;;;11.67;;
7917;SDS011;4004;42.624;23.386;2023-05-16T05:40:57;14.63;;;11.17;;
7917;SDS011;4004;42.624;23.386;2023-05-16T05:43:24;15.77;;;11.60;;
7917;SDS011;4004;42.624;23.386;2023-05-16T05:45:51;16.73;;;12.02;;
7917;SDS011;4004;42.624;23.386;2023-05-16T05:48:19;17.37;;;11.37;;
7917;SDS011;4004;42.624;23.386;2023-05-16T05:50:46;14.30;;;10.53;;
7917;SDS011;4004;42.624;23.386;2023-05-16T05:53:13;13.70;;;11.40;;
7917;SDS011;4004;42.624;23.386;2023-05-16T05:55:40;14.17;;;12.40;;
7917;SDS011;4004;42.624;23.386;2023-05-16T05:58:07;17.70;;;12.97;;
7917;SDS011;4004;42.624;23.386;2023-05-16T06:00:34;18.90;;;11.73;;
7917;SDS011;4004;42.624;23.386;2023-05-16T06:03:01;16.40;;;11.87;;
7917;SDS011;4004;42.624;23.386;2023-05-16T06:05:29;12.63;;;11.33;;
7917;SDS011;4004;42.624;23.386;2023-05-16T06:07:56;15.57;;;12.57;;
7917;SDS011;4004;42.624;23.386;2023-05-16T06:10:23;13.37;;;11.63;;
7917;SDS011;4004;42.624;23.386;2023-05-16T06:12:49;13.13;;;11.80;;
7917;SDS011;4004;42.624;23.386;2023-05-16T06:15:16;12.77;;;11.37;;
7917;SDS011;4004;42.624;23.386;2023-05-16T06:17:43;13.60;;;12.13;;
7917;SDS011;4004;42.624;23.386;2023-05-16T06:20:10;16.27;;;12.03;;
7917;SDS011;4004;42.624;23.386;2023-05-16T06:22:39;14.93;;;11.23;;
7917;SDS011;4004;42.624;23.386;2023-05-16T06:25:06;15.10;;;11.47;;
7917;SDS011;4004;42.624;23.386;2023-05-16T06:27:33;18.07;;;11.33;;
7917;SDS011;4004;42.624;23.386;2023-05-16T06:29:59;12.67;;;11.43;;
7917;SDS011;4004;42.624;23.386;2023-05-16T06:32:26;12.63;;;11.33;;
7917;SDS011;4004;42.624;23.386;2023-05-16T06:34:53;13.20;;;11.17;;
7917;SDS011;4004;42.624;23.386;2023-05-16T06:37:20;12.93;;;10.80;;
7917;SDS011;4004;42.624;23.386;2023-05-16T06:39:48;13.73;;;10.33;;
7917;SDS011;4004;42.624;23.386;2023-05-16T06:42:15;13.17;;;10.00;;
7917;SDS011;4004;42.624;23.386;2023-05-16T06:44:43;11.27;;;9.63;;
7917;SDS011;4004;42.624;23.386;2023-05-16T06:47:10;13.30;;;10.30;;
7917;SDS011;4004;42.624;23.386;2023-05-16T06:49:37;11.87;;;9.93;;
7917;SDS011;4004;42.624;23.386;2023-05-16T06:52:04;14.27;;;10.17;;
7917;SDS011;4004;42.624;23.386;2023-05-16T06:54:31;12.30;;;10.53;;
7917;SDS011;4004;42.624;23.386;2023-05-16T06:56:59;11.33;;;10.07;;
7917;SDS011;4004;42.624;23.386;2023-05-16T06:59:27;11.13;;;9.77;;
7917;SDS011;4004;42.624;23.386;2023-05-16T07:01:54;12.23;;;10.10;;
7917;SDS011;4004;42.624;23.386;2023-05-16T07:04:20;13.50;;;9.80;;
7917;SDS011;4004;42.624;23.386;2023-05-16T07:06:47;15.80;;;9.30;;
7917;SDS011;4004;42.624;23.386;2023-05-16T07:09:14;11.67;;;10.10;;
7917;SDS011;4004;42.624;23.386;2023-05-16T07:11:41;13.43;;;9.73;;
7917;SDS011;4004;42.624;23.386;2023-05-16T07:14:09;14.67;;;9.93;;
7917;SDS011;4004;42.624;23.386;2023-05-16T07:16:35;14.37;;;9.40;;
7917;SDS011;4004;42.624;23.386;2023-05-16T07:19:02;23.50;;;10.03;;
7917;SDS011;4004;42.624;23.386;2023-05-16T07:21:29;15.20;;;9.97;;
7917;SDS011;4004;42.624;23.386;2023-05-16T07:23:56;13.00;;;10.20;;
7917;SDS011;4004;42.624;23.386;2023-05-16T07:26:23;16.17;;;10.73;;
7917;SDS011;4004;42.624;23.386;2023-05-16T07:28:50;11.10;;;9.83;;
7917;SDS011;4004;42.624;23.386;2023-05-16T07:31:19;11.27;;;10.17;;
7917;SDS011;4004;42.624;23.386;2023-05-16T07:33:45;11.63;;;9.80;;
7917;SDS011;4004;42.624;23.386;2023-05-16T07:36:13;11.70;;;9.93;;
7917;SDS011;4004;42.624;23.386;2023-05-16T07:38:40;11.50;;;9.93;;
7917;SDS011;4004;42.624;23.386;2023-05-16T07:41:07;10.50;;;9.40;;
7917;SDS011;4004;42.624;23.386;2023-05-16T07:43:33;15.30;;;10.40;;
7917;SDS011;4004;42.624;23.386;2023-05-16T07:46:00;14.00;;;10.00;;
7917;SDS011;4004;42.624;23.386;2023-05-16T07:48:29;12.57;;;10.50;;
7917;SDS011;4004;42.624;23.386;2023-05-16T07:50:55;13.40;;;9.90;;
7917;SDS011;4004;42.624;23.386;2023-05-16T07:53:22;11.53;;;9.60;;
7917;SDS011;4004;42.624;23.386;2023-05-16T07:55:49;14.20;;;11.13;;
7917;SDS011;4004;42.624;23.386;2023-05-16T07:58:15;14.90;;;11.67;;
7917;SDS011;4004;42.624;23.386;2023-05-16T08:00:42;13.47;;;11.07;;
7917;SDS011;4004;42.624;23.386;2023-05-16T08:03:09;11.67;;;9.00;;
7917;SDS011;4004;42.624;23.386;2023-05-16T08:05:37;13.43;;;10.90;;
7917;SDS011;4004;42.624;23.386;2023-05-16T08:08:04;10.70;;;9.70;;
7917;SDS011;4004;42.624;23.386;2023-05-16T08:10:31;14.83;;;10.20;;
7917;SDS011;4004;42.624;23.386;2023-05-16T08:12:58;10.13;;;9.13;;
7917;SDS011;4004;42.624;23.386;2023-05-16T08:15:25;21.67;;;9.17;;
7917;SDS011;4004;42.624;23.386;2023-05-16T08:17:53;12.77;;;8.83;;
7917;SDS011;4004;42.624;23.386;2023-05-16T08:20:22;12.90;;;9.07;;
7917;SDS011;4004;42.624;23.386;2023-05-16T08:22:51;13.40;;;8.70;;
7917;SDS011;4004;42.624;23.386;2023-05-16T08:25:17;10.67;;;8.83;;
7917;SDS011;4004;42.624;23.386;2023-05-16T08:27:44;13.87;;;8.80;;
7917;SDS011;4004;42.624;23.386;2023-05-16T08:30:12;13.30;;;8.80;;
7917;SDS011;4004;42.624;23.386;2023-05-16T08:32:39;13.93;;;7.70;;
7917;SDS011;4004;42.624;23.386;2023-05-16T08:35:06;17.10;;;8.07;;
7917;SDS011;4004;42.624;23.386;2023-05-16T08:37:34;9.37;;;8.20;;
7917;SDS011;4004;42.624;23.386;2023-05-16T08:40:04;13.00;;;8.03;;
7917;SDS011;4004;42.624;23.386;2023-05-16T08:42:35;16.63;;;8.77;;
7917;SDS011;4004;42.624;23.386;2023-05-16T08:45:02;7.83;;;7.03;;
7917;SDS011;4004;42.624;23.386;2023-05-16T08:47:30;11.00;;;7.70;;
7917;SDS011;4004;42.624;23.386;2023-05-16T08:49:58;8.90;;;7.77;;
7917;SDS011;4004;42.624;23.386;2023-05-16T08:52:28;12.60;;;7.13;;
7917;SDS011;4004;42.624;23.386;2023-05-16T08:54:58;13.37;;;7.00;;
7917;SDS011;4004;42.624;23.386;2023-05-16T08:57:30;20.43;;;7.73;;
7917;SDS011;4004;42.624;23.386;2023-05-16T08:59:58;15.53;;;7.70;;
7917;SDS011;4004;42.624;23.386;2023-05-16T09:02:25;13.87;;;8.07;;
7917;SDS011;4004;42.624;23.386;2023-05-16T09:04:52;9.50;;;6.80;;
7917;SDS011;4004;42.624;23.386;2023-05-16T09:07:20;11.67;;;7.83;;
7917;SDS011;4004;42.624;23.386;2023-05-16T09:09:46;11.53;;;7.40;;
7917;SDS011;4004;42.624;23.386;2023-05-16T09:12:13;9.90;;;7.67;;
7917;SDS011;4004;42.624;23.386;2023-05-16T09:14:42;9.73;;;7.53;;
7917;SDS011;4004;42.624;23.386;2023-05-16T09:17:09;9.80;;;7.43;;
7917;SDS011;4004;42.624;23.386;2023-05-16T09:19:37;12.33;;;7.43;;
7917;SDS011;4004;42.624;23.386;2023-05-16T09:22:05;15.10;;;8.07;;
7917;SDS011;4004;42.624;23.386;2023-05-16T09:24:36;18.97;;;8.23;;
7917;SDS011;4004;42.624;23.386;2023-05-16T09:27:07;10.90;;;7.57;;
7917;SDS011;4004;42.624;23.386;2023-05-16T09:29:35;14.87;;;7.47;;
7917;SDS011;4004;42.624;23.386;2023-05-16T09:32:09;10.00;;;8.20;;
7917;SDS011;4004;42.624;23.386;2023-05-16T09:34:38;10.57;;;7.53;;
7917;SDS011;4004;42.624;23.386;2023-05-16T09:37:05;12.63;;;8.47;;
7917;SDS011;4004;42.624;23.386;2023-05-16T09:39:31;12.47;;;8.03;;
7917;SDS011;4004;42.624;23.386;2023-05-16T09:41:58;12.00;;;8.27;;
7917;SDS011;4004;42.624;23.386;2023-05-16T09:44:25;13.47;;;7.87;;
7917;SDS011;4004;42.624;23.386;2023-05-16T09:46:52;12.70;;;7.73;;
7917;SDS011;4004;42.624;23.386;2023-05-16T09:49:21;8.63;;;7.73;;
7917;SDS011;4004;42.624;23.386;2023-05-16T09:51:48;9.23;;;8.00;;
7917;SDS011;4004;42.624;23.386;2023-05-16T09:54:17;12.10;;;8.40;;
7917;SDS011;4004;42.624;23.386;2023-05-16T09:56:55;12.40;;;8.30;;
7917;SDS011;4004;42.624;23.386;2023-05-16T09:59:22;12.13;;;8.67;;
7917;SDS011;4004;42.624;23.386;2023-05-16T10:01:49;9.83;;;8.10;;
7917;SDS011;4004;42.624;23.386;2023-05-16T10:04:16;10.13;;;7.97;;
7917;SDS011;4004;42.624;23.386;2023-05-16T10:06:44;11.50;;;7.73;;
7917;SDS011;4004;42.624;23.386;2023-05-16T10:09:11;13.40;;;8.63;;
7917;SDS011;4004;42.624;23.386;2023-05-16T10:11:38;12.07;;;8.60;;
7917;SDS011;4004;42.624;23.386;2023-05-16T10:14:08;11.20;;;8.87;;
7917;SDS011;4004;42.624;23.386;2023-05-16T10:16:35;15.57;;;9.93;;
7917;SDS011;4004;42.624;23.386;2023-05-16T10:19:02;13.07;;;8.20;;
7917;SDS011;4004;42.624;23.386;2023-05-16T10:21:29;10.77;;;8.50;;
7917;SDS011;4004;42.624;23.386;2023-05-16T10:24:00;13.90;;;8.73;;
7917;SDS011;4004;42.624;23.386;2023-05-16T10:26:29;14.90;;;8.67;;
7917;SDS011;4004;42.624;23.386;2023-05-16T10:28:57;15.87;;;8.80;;
7917;SDS011;4004;42.624;23.386;2023-05-16T10:31:25;9.07;;;8.07;;
7917;SDS011;4004;42.624;23.386;2023-05-16T10:33:53;12.77;;;7.88;;
7917;SDS011;4004;42.624;23.386;2023-05-16T10:36:22;13.03;;;7.63;;
7917;SDS011;4004;42.624;23.386;2023-05-16T10:38:49;12.43;;;7.43;;
7917;SDS011;4004;42.624;23.386;2023-05-16T10:41:18;8.63;;;7.33;;
7917;SDS011;4004;42.624;23.386;2023-05-16T10:43:54;15.70;;;8.80;;
7917;SDS011;4004;42.624;23.386;2023-05-16T10:46:22;16.03;;;8.03;;
7917;SDS011;4004;42.624;23.386;2023-05-16T10:48:50;14.30;;;9.27;;
7917;SDS011;4004;42.624;23.386;2023-05-16T10:51:32;14.27;;;9.03;;
7917;SDS011;4004;42.624;23.386;2023-05-16T10:54:03;9.67;;;8.60;;
7917;SDS011;4004;42.624;23.386;2023-05-16T10:56:32;11.40;;;7.63;;
7917;SDS011;4004;42.624;23.386;2023-05-16T10:58:59;11.70;;;7.93;;
7917;SDS011;4004;42.624;23.386;2023-05-16T11:01:26;8.70;;;6.93;;
7917;SDS011;4004;42.624;23.386;2023-05-16T11:04:07;9.20;;;6.93;;
7917;SDS011;4004;42.624;23.386;2023-05-16T11:06:43;9.47;;;7.40;;
7917;SDS011;4004;42.624;23.386;2023-05-16T11:09:21;18.00;;;7.23;;
7917;SDS011;4004;42.624;23.386;2023-05-16T11:11:54;13.57;;;7.40;;
7917;SDS011;4004;42.624;23.386;2023-05-16T11:14:23;17.07;;;8.33;;
7917;SDS011;4004;42.624;23.386;2023-05-16T11:16:58;14.17;;;8.50;;
7917;SDS011;4004;42.624;23.386;2023-05-16T11:19:33;11.60;;;6.43;;
7917;SDS011;4004;42.624;23.386;2023-05-16T11:22:11;13.23;;;6.97;;
7917;SDS011;4004;42.624;23.386;2023-05-16T11:24:48;10.63;;;7.40;;
7917;SDS011;4004;42.624;23.386;2023-05-16T11:27:22;10.53;;;7.03;;
7917;SDS011;4004;42.624;23.386;2023-05-16T11:29:54;12.07;;;7.03;;
7917;SDS011;4004;42.624;23.386;2023-05-16T11:32:23;10.57;;;7.23;;
7917;SDS011;4004;42.624;23.386;2023-05-16T11:34:50;11.43;;;7.57;;
7917;SDS011;4004;42.624;23.386;2023-05-16T11:37:18;13.83;;;7.50;;
7917;SDS011;4004;42.624;23.386;2023-05-16T11:39:46;15.40;;;7.43;;
7917;SDS011;4004;42.624;23.386;2023-05-16T11:42:13;11.40;;;7.33;;
7917;SDS011;4004;42.624;23.386;2023-05-16T11:44:42;10.73;;;6.70;;
7917;SDS011;4004;42.624;23.386;2023-05-16T11:47:09;9.80;;;6.67;;
7917;SDS011;4004;42.624;23.386;2023-05-16T11:49:36;15.40;;;7.33;;
7917;SDS011;4004;42.624;23.386;2023-05-16T11:52:03;15.13;;;7.60;;
7917;SDS011;4004;42.624;23.386;2023-05-16T11:54:30;11.67;;;7.30;;
7917;SDS011;4004;42.624;23.386;2023-05-16T11:56:58;14.20;;;7.10;;
7917;SDS011;4004;42.624;23.386;2023-05-16T11:59:26;15.07;;;6.83;;
7917;SDS011;4004;42.624;23.386;2023-05-16T12:01:54;13.17;;;7.13;;
7917;SDS011;4004;42.624;23.386;2023-05-16T12:04:20;17.80;;;7.57;;
7917;SDS011;4004;42.624;23.386;2023-05-16T12:06:56;13.40;;;7.07;;
7917;SDS011;4004;42.624;23.386;2023-05-16T12:09:25;12.47;;;7.20;;
7917;SDS011;4004;42.624;23.386;2023-05-16T12:11:52;9.33;;;6.23;;
7917;SDS011;4004;42.624;23.386;2023-05-16T12:14:19;10.03;;;6.80;;
7917;SDS011;4004;42.624;23.386;2023-05-16T12:16:46;10.53;;;6.43;;
7917;SDS011;4004;42.624;23.386;2023-05-16T12:19:14;14.10;;;6.77;;
7917;SDS011;4004;42.624;23.386;2023-05-16T12:21:42;16.37;;;7.47;;
7917;SDS011;4004;42.624;23.386;2023-05-16T12:24:09;9.40;;;6.43;;
7917;SDS011;4004;42.624;23.386;2023-05-16T12:26:37;11.40;;;6.93;;
7917;SDS011;4004;42.624;23.386;2023-05-16T12:29:05;19.10;;;6.93;;
7917;SDS011;4004;42.624;23.386;2023-05-16T12:31:34;12.57;;;7.47;;
7917;SDS011;4004;42.624;23.386;2023-05-16T12:34:02;8.70;;;6.83;;
7917;SDS011;4004;42.624;23.386;2023-05-16T12:36:32;12.80;;;6.60;;
7917;SDS011;4004;42.624;23.386;2023-05-16T12:38:59;13.60;;;6.20;;
7917;SDS011;4004;42.624;23.386;2023-05-16T12:41:28;14.97;;;6.83;;
7917;SDS011;4004;42.624;23.386;2023-05-16T12:44:05;13.53;;;7.30;;
7917;SDS011;4004;42.624;23.386;2023-05-16T12:46:32;9.83;;;7.00;;
7917;SDS011;4004;42.624;23.386;2023-05-16T12:49:00;12.87;;;5.73;;
7917;SDS011;4004;42.624;23.386;2023-05-16T12:51:31;11.70;;;5.90;;
7917;SDS011;4004;42.624;23.386;2023-05-16T12:54:05;11.63;;;6.73;;
7917;SDS011;4004;42.624;23.386;2023-05-16T12:56:33;11.40;;;6.83;;
7917;SDS011;4004;42.624;23.386;2023-05-16T12:59:00;14.07;;;6.23;;
7917;SDS011;4004;42.624;23.386;2023-05-16T13:01:27;12.07;;;6.40;;
7917;SDS011;4004;42.624;23.386;2023-05-16T13:03:53;15.87;;;6.30;;
7917;SDS011;4004;42.624;23.386;2023-05-16T13:06:20;21.60;;;7.00;;
7917;SDS011;4004;42.624;23.386;2023-05-16T13:08:48;16.77;;;7.00;;
7917;SDS011;4004;42.624;23.386;2023-05-16T13:11:15;16.60;;;7.17;;
7917;SDS011;4004;42.624;23.386;2023-05-16T13:13:43;11.03;;;7.27;;
7917;SDS011;4004;42.624;23.386;2023-05-16T13:16:09;13.03;;;6.93;;
7917;SDS011;4004;42.624;23.386;2023-05-16T13:18:36;9.97;;;6.60;;
7917;SDS011;4004;42.624;23.386;2023-05-16T13:21:03;13.70;;;6.83;;
7917;SDS011;4004;42.624;23.386;2023-05-16T13:23:30;13.27;;;6.97;;
7917;SDS011;4004;42.624;23.386;2023-05-16T13:25:59;14.37;;;7.07;;
7917;SDS011;4004;42.624;23.386;2023-05-16T13:28:25;12.47;;;6.83;;
7917;SDS011;4004;42.624;23.386;2023-05-16T13:30:52;12.97;;;7.17;;
7917;SDS011;4004;42.624;23.386;2023-05-16T13:33:19;16.43;;;7.17;;
7917;SDS011;4004;42.624;23.386;2023-05-16T13:35:46;9.03;;;7.00;;
7917;SDS011;4004;42.624;23.386;2023-05-16T13:38:13;18.37;;;7.33;;
7917;SDS011;4004;42.624;23.386;2023-05-16T13:40:40;25.07;;;8.70;;
7917;SDS011;4004;42.624;23.386;2023-05-16T13:43:08;18.70;;;8.50;;
7917;SDS011;4004;42.624;23.386;2023-05-16T13:45:35;21.23;;;7.93;;
7917;SDS011;4004;42.624;23.386;2023-05-16T13:48:02;28.00;;;8.57;;
7917;SDS011;4004;42.624;23.386;2023-05-16T13:50:29;25.77;;;8.23;;
7917;SDS011;4004;42.624;23.386;2023-05-16T13:52:56;32.93;;;8.77;;
7917;SDS011;4004;42.624;23.386;2023-05-16T13:55:22;22.87;;;8.20;;
7917;SDS011;4004;42.624;23.386;2023-05-16T13:57:49;35.40;;;9.43;;
7917;SDS011;4004;42.624;23.386;2023-05-16T14:00:18;23.83;;;9.37;;
7917;SDS011;4004;42.624;23.386;2023-05-16T14:02:45;33.93;;;10.20;;
7917;SDS011;4004;42.624;23.386;2023-05-16T14:05:11;31.17;;;9.90;;
7917;SDS011;4004;42.624;23.386;2023-05-16T14:07:38;28.07;;;9.63;;
7917;SDS011;4004;42.624;23.386;2023-05-16T14:10:05;20.17;;;9.63;;
7917;SDS011;4004;42.624;23.386;2023-05-16T14:12:33;25.37;;;10.47;;
7917;SDS011;4004;42.624;23.386;2023-05-16T14:15:00;25.03;;;9.67;;
7917;SDS011;4004;42.624;23.386;2023-05-16T14:17:28;31.00;;;10.47;;
7917;SDS011;4004;42.624;23.386;2023-05-16T14:19:55;19.27;;;9.93;;
7917;SDS011;4004;42.624;23.386;2023-05-16T14:22:21;29.00;;;10.83;;
7917;SDS011;4004;42.624;23.386;2023-05-16T14:24:48;31.53;;;11.37;;
7917;SDS011;4004;42.624;23.386;2023-05-16T14:27:15;18.80;;;10.80;;
7917;SDS011;4004;42.624;23.386;2023-05-16T14:29:42;21.67;;;10.77;;
7917;SDS011;4004;42.624;23.386;2023-05-16T14:32:09;28.10;;;12.33;;
7917;SDS011;4004;42.624;23.386;2023-05-16T14:34:38;21.27;;;11.53;;
7917;SDS011;4004;42.624;23.386;2023-05-16T14:37:05;19.50;;;11.30;;
7917;SDS011;4004;42.624;23.386;2023-05-16T14:39:31;22.27;;;11.83;;
7917;SDS011;4004;42.624;23.386;2023-05-16T14:41:58;30.07;;;12.97;;
7917;SDS011;4004;42.624;23.386;2023-05-16T14:44:25;29.13;;;13.07;;
7917;SDS011;4004;42.624;23.386;2023-05-16T14:46:51;24.37;;;13.10;;
7917;SDS011;4004;42.624;23.386;2023-05-16T14:49:18;24.73;;;12.47;;
7917;SDS011;4004;42.624;23.386;2023-05-16T14:51:46;25.30;;;12.00;;
7917;SDS011;4004;42.624;23.386;2023-05-16T14:54:14;22.33;;;12.93;;
7917;SDS011;4004;42.624;23.386;2023-05-16T14:56:41;31.13;;;12.67;;
7917;SDS011;4004;42.624;23.386;2023-05-16T14:59:08;18.40;;;11.93;;
7917;SDS011;4004;42.624;23.386;2023-05-16T15:01:35;24.87;;;12.57;;